Time;durP1;ratioP1;P1;durP2;ratioP2;P2;SDS_P1;SDS_P2;PMS_P1;PMS_P2;Temp;Humidity;BMP_temperature;BMP_pressure;BME280_temperature;BME280_humidity;BME280_pressure;Samples;Min_cycle;Max_cycle;Signal;HPM_P1;HPM_P2
2022/04/02 10:40:07;;;;;;;2.50;1.00;;;14.80;68.30;;;;;;2299950;62;30048;-79
2022/04/02 10:42:43;;;;;;;3.33;1.00;;;14.80;68.00;;;;;;2285335;62;30136;-78
2022/04/02 10:45:14;;;;;;;2.65;0.80;;;14.80;68.90;;;;;;2289889;62;30089;-78
2022/04/02 10:48:09;;;;;;;2.40;1.30;;;14.80;69.70;;;;;;2283812;62;30213;-78
2022/04/02 10:50:38;;;;;;;3.83;0.88;;;14.80;70.10;;;;;;2289397;62;30573;-76
2022/04/02 10:53:05;;;;;;;2.58;0.93;;;14.90;70.80;;;;;;2288134;62;30054;-75
2022/04/02 10:55:31;;;;;;;2.13;1.00;;;14.90;71.10;;;;;;2291420;62;30029;-75
2022/04/02 10:57:59;;;;;;;3.30;0.98;;;14.90;71.40;;;;;;2290397;62;30112;-74
2022/04/02 11:00:28;;;;;;;3.22;0.65;;;15.00;71.70;;;;;;2294932;62;30022;-74
2022/04/02 11:03:04;;;;;;;2.80;0.80;;;15.00;71.60;;;;;;2285369;62;30223;-79
2022/04/02 11:05:40;;;;;;;2.28;0.63;;;15.10;71.20;;;;;;2299205;62;30257;-77
2022/04/02 11:08:12;;;;;;;2.00;0.90;;;15.10;71.50;;;;;;2292123;62;32207;-79
2022/04/02 11:10:38;;;;;;;3.20;0.80;;;15.10;71.90;;;;;;2298994;62;30100;-78
2022/04/02 11:13:08;;;;;;;2.90;1.13;;;15.10;71.40;;;;;;2299108;62;30102;-78
2022/04/02 11:15:39;;;;;;;2.83;1.75;;;15.00;67.50;;;;;;2284866;62;30069;-78
2022/04/02 11:18:05;;;;;;;2.75;1.20;;;14.80;66.50;;;;;;2283631;62;30825;-78
2022/04/02 11:20:32;;;;;;;2.33;1.15;;;14.60;64.10;;;;;;2290337;62;30715;-77
2022/04/02 11:23:21;;;;;;;3.33;1.35;;;14.40;63.60;;;;;;2290966;62;29930;-78
2022/04/02 11:25:49;;;;;;;1.40;1.30;;;14.30;60.10;;;;;;2290266;62;30237;-77
2022/04/02 11:28:22;;;;;;;2.08;1.35;;;14.10;61.90;;;;;;2290209;62;31068;-78
2022/04/02 11:31:01;;;;;;;5.25;1.50;;;14.00;62.20;;;;;;2294424;62;30554;-75
2022/04/02 11:33:34;;;;;;;2.00;0.95;;;14.00;61.80;;;;;;2295686;62;29944;-76
2022/04/02 11:36:07;;;;;;;1.52;1.35;;;14.10;64.60;;;;;;2291945;62;30160;-77
2022/04/02 11:38:40;;;;;;;0.98;0.90;;;14.20;64.50;;;;;;2286711;62;30139;-77
2022/04/02 11:41:30;;;;;;;3.00;1.08;;;14.40;64.50;;;;;;2275259;62;30720;-77
2022/04/02 11:44:09;;;;;;;2.13;1.10;;;14.50;64.10;;;;;;2281705;62;30166;-77
2022/04/02 11:46:55;;;;;;;2.30;1.20;;;14.60;64.10;;;;;;2282602;62;30773;-76
2022/04/02 11:49:28;;;;;;;3.30;1.20;;;14.60;63.10;;;;;;2274926;62;30132;-76
2022/04/02 11:52:10;;;;;;;3.70;1.17;;;14.70;64.10;;;;;;2276706;62;30319;-78
2022/04/02 11:54:57;;;;;;;;;;;14.80;63.40;;;;;;2277499;62;29997;-77
2022/04/02 11:57:23;;;;;;;1.45;0.90;;;14.80;62.50;;;;;;2276768;62;30118;-77
2022/04/02 12:00:01;;;;;;;1.48;0.95;;;14.90;64.40;;;;;;2276660;62;30249;-77
2022/04/02 12:02:36;;;;;;;1.45;0.73;;;15.00;63.80;;;;;;2276921;62;31256;-77
2022/04/02 12:05:05;;;;;;;1.75;1.15;;;15.00;63.70;;;;;;2276269;62;30267;-78
2022/04/02 12:07:41;;;;;;;1.45;0.85;;;15.10;64.10;;;;;;2271269;62;30156;-77
2022/04/02 12:10:31;;;;;;;4.03;0.98;;;15.20;63.50;;;;;;2268249;62;32017;-76
2022/04/02 12:12:58;;;;;;;2.03;1.40;;;15.20;63.70;;;;;;2269077;62;30261;-78
2022/04/02 12:15:24;;;;;;;4.47;0.98;;;15.30;64.00;;;;;;2264153;62;30126;-76
2022/04/02 12:18:03;;;;;;;2.03;0.90;;;15.30;64.00;;;;;;2274682;62;30180;-76
2022/04/02 12:20:30;;;;;;;1.90;1.00;;;15.30;63.60;;;;;;2275780;62;30832;-76
2022/04/02 12:23:05;;;;;;;4.00;1.08;;;15.30;63.90;;;;;;2276640;62;30547;-76
2022/04/02 12:25:32;;;;;;;0.82;0.80;;;15.40;63.50;;;;;;2276993;62;30216;-76
2022/04/02 12:27:57;;;;;;;1.98;1.05;;;15.40;63.90;;;;;;2276762;62;30133;-77
2022/04/02 12:30:23;;;;;;;2.50;0.95;;;15.40;63.90;;;;;;2276100;62;30051;-78
2022/04/02 12:32:50;;;;;;;2.67;0.90;;;15.40;63.90;;;;;;2277043;62;29989;-77
2022/04/02 12:35:24;;;;;;;1.70;0.85;;;15.40;64.00;;;;;;2269299;62;30254;-77
2022/04/02 12:37:52;;;;;;;1.17;0.95;;;15.40;63.80;;;;;;2268174;62;30007;-76
2022/04/02 12:40:21;;;;;;;1.92;1.00;;;15.40;64.20;;;;;;2271098;62;31315;-77
2022/04/02 12:42:50;;;;;;;0.80;0.65;;;15.50;64.20;;;;;;2286272;62;32164;-76
2022/04/02 12:45:22;;;;;;;3.63;1.00;;;15.50;64.10;;;;;;2284868;62;30169;-76
2022/04/02 12:48:24;;;;;;;2.15;0.70;;;15.50;64.10;;;;;;2285212;62;31266;-77
2022/04/02 12:50:54;;;;;;;;;;;15.50;63.60;;;;;;2285151;62;31376;-72
2022/04/02 12:53:52;;;;;;;3.05;1.00;;;15.50;63.70;;;;;;2283973;62;30361;-73
2022/04/02 12:56:20;;;;;;;1.42;0.90;;;15.60;63.70;;;;;;2285110;62;30177;-74
2022/04/02 12:58:48;;;;;;;1.13;0.73;;;15.70;64.10;;;;;;2279046;62;30352;-73
2022/04/02 13:01:14;;;;;;;4.57;0.90;;;15.80;64.00;;;;;;2278972;62;31105;-74
2022/04/02 13:04:01;;;;;;;2.05;1.00;;;15.80;63.90;;;;;;2279826;62;30463;-74
2022/04/02 13:06:28;;;;;;;1.58;0.70;;;15.90;63.80;;;;;;2285137;62;30159;-73
2022/04/02 13:09:04;;;;;;;0.80;0.80;;;16.00;63.80;;;;;;2277788;62;30642;-73
2022/04/02 13:11:45;;;;;;;1.27;0.90;;;16.00;63.60;;;;;;2277587;62;32666;-73
2022/04/02 13:14:29;;;;;;;0.70;0.70;;;16.10;63.60;;;;;;2278543;62;31953;-73
2022/04/02 13:17:07;;;;;;;;;;;16.20;63.90;;;;;;2276040;62;30262;-73
2022/04/02 13:22:52;;;;;;;3.08;0.63;;;16.20;63.70;;;;;;2284846;62;31106;-73
2022/04/02 13:25:22;;;;;;;4.03;0.90;;;16.20;64.00;;;;;;2277126;62;31721;-73
2022/04/02 13:28:00;;;;;;;0.80;0.80;;;16.20;64.00;;;;;;2277512;62;30076;-73
2022/04/02 13:30:38;;;;;;;3.75;0.90;;;16.20;63.90;;;;;;2277590;62;30630;-72
2022/04/02 13:33:31;;;;;;;0.70;0.68;;;16.30;63.70;;;;;;2284557;62;31499;-73
2022/04/02 13:36:13;;;;;;;1.30;0.80;;;16.30;63.70;;;;;;2285432;62;29960;-73
2022/04/02 13:38:56;;;;;;;1.48;0.80;;;16.40;63.90;;;;;;2284124;62;30221;-74
2022/04/02 13:41:30;;;;;;;1.98;1.02;;;16.40;63.90;;;;;;2284845;62;30023;-73
2022/04/02 13:43:58;;;;;;;0.50;0.50;;;16.60;63.60;;;;;;2284385;62;30039;-74
2022/04/02 13:46:35;;;;;;;3.30;0.88;;;16.70;63.60;;;;;;2284011;62;30678;-73
2022/04/02 13:49:04;;;;;;;1.70;0.70;;;16.70;63.50;;;;;;2284805;62;30095;-76
2022/04/02 13:51:40;;;;;;;1.10;0.57;;;16.80;63.40;;;;;;2284903;62;30127;-74
2022/04/02 13:54:20;;;;;;;0.90;0.63;;;16.80;63.20;;;;;;2284735;62;31876;-78
2022/04/02 13:57:00;;;;;;;1.88;0.80;;;16.80;63.40;;;;;;2278235;62;30337;-83
2022/04/02 13:59:31;;;;;;;1.30;0.50;;;16.80;63.80;;;;;;2284329;62;29993;-80
2022/04/02 14:01:58;;;;;;;0.93;0.75;;;16.80;63.70;;;;;;2284711;62;30287;-78
2022/04/02 14:04:44;;;;;;;3.00;0.73;;;16.80;63.60;;;;;;2284411;62;30362;-77
2022/04/02 14:07:10;;;;;;;1.95;0.70;;;16.90;63.10;;;;;;2283992;62;32577;-77
2022/04/02 14:09:36;;;;;;;1.48;0.80;;;17.00;63.50;;;;;;2277531;62;30245;-82
2022/04/02 14:12:10;;;;;;;0.70;0.70;;;17.10;63.30;;;;;;2278123;62;30372;-80
2022/04/02 14:15:13;;;;;;;4.47;0.80;;;17.20;63.20;;;;;;2270525;62;31501;-81
2022/04/02 14:17:41;;;;;;;0.50;0.50;;;17.30;62.50;;;;;;2263851;62;31789;-79
2022/04/02 14:20:11;;;;;;;1.98;0.63;;;17.40;62.90;;;;;;2270606;62;30181;-86
2022/04/02 14:22:59;;;;;;;6.22;0.80;;;17.40;62.70;;;;;;2277059;62;30228;-80
2022/04/02 14:25:38;;;;;;;1.73;0.95;;;17.60;62.90;;;;;;2278476;62;30508;-82
2022/04/02 14:28:39;;;;;;;2.03;0.85;;;17.80;62.60;;;;;;2284211;62;30914;-80
2022/04/02 14:31:24;;;;;;;1.17;0.82;;;18.00;61.50;;;;;;2278460;62;30299;-80
2022/04/02 14:34:15;;;;;;;2.00;1.05;;;18.40;61.90;;;;;;2284669;62;31121;-79
2022/04/02 14:37:05;;;;;;;2.53;1.00;;;19.20;60.10;;;;;;2282619;62;31421;-77
2022/04/02 14:39:30;;;;;;;3.03;1.08;;;19.80;58.60;;;;;;2293030;62;30733;-79
2022/04/02 14:42:10;;;;;;;2.03;0.80;;;20.20;58.30;;;;;;2292770;62;30147;-78
2022/04/02 14:45:03;;;;;;;2.05;1.00;;;20.10;57.50;;;;;;2283575;62;30110;-79
2022/04/02 14:48:26;;;;;;;1.75;0.57;;;20.00;56.00;;;;;;2285307;62;30176;-77
2022/04/02 14:51:04;;;;;;;2.67;0.90;;;19.60;56.00;;;;;;2242385;62;32047;-80
2022/04/02 14:53:45;;;;;;;3.78;1.05;;;19.90;58.00;;;;;;2285383;62;30105;-87
2022/04/02 14:56:47;;;;;;;1.48;0.90;;;20.50;57.50;;;;;;2292639;62;30597;-83
2022/04/02 14:59:28;;;;;;;;;;;21.90;54.90;;;;;;2284690;62;31882;-81
2022/04/02 15:02:17;;;;;;;1.48;0.80;;;22.90;53.00;;;;;;2291937;62;30524;-81
2022/04/02 15:05:04;;;;;;;4.03;0.90;;;23.70;51.90;;;;;;2285595;62;29846;-80
2022/04/02 15:08:08;;;;;;;8.98;1.30;;;24.20;49.60;;;;;;2282944;62;30072;-80
2022/04/02 15:10:35;;;;;;;3.42;0.90;;;24.40;48.40;;;;;;2284387;62;30891;-79
2022/04/02 15:13:08;;;;;;;4.15;0.82;;;24.20;49.60;;;;;;2284328;62;30051;-77
2022/04/02 15:15:43;;;;;;;2.35;1.35;;;23.90;48.30;;;;;;2284432;62;30025;-78
2022/04/02 15:18:19;;;;;;;1.80;0.80;;;23.60;49.00;;;;;;2283093;62;30067;-76
2022/04/02 15:21:14;;;;;;;3.40;0.90;;;23.80;49.20;;;;;;2278775;62;31538;-80
2022/04/02 15:24:01;;;;;;;2.53;1.00;;;23.60;47.60;;;;;;2292268;62;30664;-77
2022/04/02 15:26:27;;;;;;;4.20;0.90;;;23.00;48.00;;;;;;2293287;62;30201;-78
2022/04/02 15:29:08;;;;;;;3.30;0.80;;;22.50;49.50;;;;;;2279475;62;30138;-79
2022/04/02 15:32:05;;;;;;;2.85;0.88;;;22.70;50.00;;;;;;2285669;62;31088;-81
2022/04/02 15:34:36;;;;;;;3.05;0.55;;;23.00;49.40;;;;;;2286233;62;30709;-77
2022/04/02 15:37:07;;;;;;;4.50;0.85;;;23.30;50.10;;;;;;2279499;62;30275;-77
2022/04/02 15:39:41;;;;;;;2.60;1.03;;;23.80;49.70;;;;;;2293426;62;30305;-75
2022/04/02 15:42:33;;;;;;;2.05;0.65;;;24.40;48.60;;;;;;2279739;62;31398;-76
2022/04/02 15:45:00;;;;;;;3.42;1.00;;;24.20;48.00;;;;;;2291963;62;30882;-76
2022/04/02 15:47:52;;;;;;;0.68;0.68;;;24.50;48.90;;;;;;2286273;62;30287;-76
2022/04/02 15:50:30;;;;;;;2.75;1.02;;;25.00;47.70;;;;;;2286769;62;30141;-76
2022/04/02 15:53:08;;;;;;;2.72;0.80;;;25.40;46.90;;;;;;2293557;62;30181;-76
2022/04/02 15:55:49;;;;;;;3.13;0.80;;;25.70;46.70;;;;;;2293776;62;30153;-78
2022/04/02 15:58:34;;;;;;;1.85;0.93;;;26.00;45.40;;;;;;2280090;62;30247;-78
2022/04/02 16:01:00;;;;;;;2.58;0.80;;;25.80;46.40;;;;;;2293530;62;30202;-78
2022/04/02 16:03:40;;;;;;;2.42;0.65;;;25.60;46.30;;;;;;2293485;62;32351;-76
2022/04/02 16:06:12;;;;;;;2.72;0.60;;;25.60;45.20;;;;;;2293351;62;30579;-76
2022/04/02 16:08:50;;;;;;;3.13;0.98;;;25.40;45.10;;;;;;2293587;62;30613;-76
2022/04/02 16:11:21;;;;;;;1.17;0.70;;;25.50;45.10;;;;;;2293472;62;30237;-76
2022/04/02 16:14:04;;;;;;;3.53;0.75;;;25.60;44.60;;;;;;2293431;62;30160;-78
2022/04/02 16:16:31;;;;;;;2.97;0.93;;;25.70;44.20;;;;;;2279339;62;30541;-76
2022/04/02 16:19:31;;;;;;;1.65;0.73;;;25.50;44.00;;;;;;2299998;62;30041;-77
2022/04/02 16:22:17;;;;;;;2.63;0.98;;;25.10;44.10;;;;;;2293328;62;30070;-79
2022/04/02 16:24:56;;;;;;;3.28;0.93;;;24.60;44.70;;;;;;2293656;62;32089;-78
2022/04/02 16:27:26;;;;;;;4.40;0.90;;;24.00;45.20;;;;;;2293401;62;31128;-79
2022/04/02 16:29:55;;;;;;;2.72;0.90;;;23.40;46.00;;;;;;2284965;62;30905;-76
2022/04/02 16:32:25;;;;;;;2.17;0.80;;;23.00;46.80;;;;;;2289282;62;30304;-78
2022/04/02 16:34:52;;;;;;;7.45;1.40;;;22.50;47.60;;;;;;2292710;62;32088;-79
2022/04/02 16:37:19;;;;;;;3.47;0.80;;;22.10;48.70;;;;;;2285970;62;31115;-76
2022/04/02 16:39:54;;;;;;;2.38;0.80;;;21.80;49.20;;;;;;2286087;62;30177;-77
2022/04/02 16:42:23;;;;;;;0.93;0.80;;;21.40;49.90;;;;;;2293053;62;30117;-76
2022/04/02 16:44:53;;;;;;;2.42;0.82;;;21.20;50.60;;;;;;2283022;62;30189;-78
2022/04/02 16:47:26;;;;;;;4.07;0.90;;;21.00;51.10;;;;;;2284242;62;30627;-79
2022/04/02 16:49:59;;;;;;;3.22;0.68;;;20.80;51.50;;;;;;2270470;62;30246;-80
2022/04/02 16:52:34;;;;;;;1.45;0.80;;;20.70;52.00;;;;;;2277997;62;30203;-79
2022/04/02 16:55:00;;;;;;;0.90;0.47;;;20.50;52.40;;;;;;2285509;62;30133;-79
2022/04/02 16:57:34;;;;;;;1.65;0.60;;;20.40;52.70;;;;;;2285137;62;30613;-77
2022/04/02 17:00:00;;;;;;;2.13;0.77;;;20.30;53.10;;;;;;2277841;62;30187;-76
2022/04/02 17:02:33;;;;;;;2.55;0.75;;;20.20;53.30;;;;;;2291031;62;30110;-77
2022/04/02 17:05:07;;;;;;;2.70;0.90;;;20.10;53.70;;;;;;2285902;62;30142;-77
2022/04/02 17:07:49;;;;;;;3.88;0.90;;;20.00;54.10;;;;;;2293436;62;30069;-88
2022/04/02 17:10:24;;;;;;;4.68;1.40;;;19.90;54.40;;;;;;2285725;62;30171;-87
2022/04/02 17:12:54;;;;;;;4.55;1.50;;;19.80;54.70;;;;;;2293447;62;30291;-84
2022/04/02 17:15:20;;;;;;;3.65;1.92;;;19.70;54.60;;;;;;2286055;62;30311;-86
2022/04/02 17:17:49;;;;;;;3.78;1.90;;;19.60;54.90;;;;;;2285705;62;30712;-81
2022/04/02 17:20:27;;;;;;;;;;;19.50;55.00;;;;;;2286394;62;30133;-83
2022/04/02 17:22:53;;;;;;;10.63;4.38;;;19.40;55.50;;;;;;2286067;62;30141;-84
2022/04/02 17:25:22;;;;;;;8.63;4.32;;;19.30;55.40;;;;;;2292947;62;30151;-82
2022/04/02 17:27:51;;;;;;;3.50;2.28;;;19.30;55.70;;;;;;2278976;62;31003;-82
2022/04/02 17:30:27;;;;;;;8.80;4.53;;;19.20;56.00;;;;;;2292766;62;30007;-80
2022/04/02 17:32:55;;;;;;;11.35;5.93;;;19.10;56.20;;;;;;2293214;62;30317;-82
2022/04/02 17:35:35;;;;;;;22.42;8.05;;;19.00;56.50;;;;;;2286600;62;32064;-85
2022/04/02 17:38:22;;;;;;;13.68;6.88;;;18.90;56.60;;;;;;2278749;62;30190;-87
2022/04/02 17:40:50;;;;;;;16.60;7.10;;;18.80;57.30;;;;;;2293285;62;29922;-85
2022/04/02 17:43:16;;;;;;;12.00;5.68;;;18.80;57.10;;;;;;2293325;62;30077;-84
2022/04/02 17:45:49;;;;;;;18.27;6.63;;;18.60;57.40;;;;;;2292401;62;31252;-85
2022/04/02 17:48:20;;;;;;;14.07;5.80;;;18.50;57.50;;;;;;2292711;62;30172;-84
2022/04/02 17:51:06;;;;;;;13.15;6.18;;;18.50;58.00;;;;;;2278906;62;30155;-88
2022/04/02 17:53:42;;;;;;;14.43;6.65;;;18.40;59.40;;;;;;2286154;62;30042;-84
2022/04/02 17:56:09;;;;;;;13.25;5.55;;;18.30;58.70;;;;;;2292402;62;31184;-89
2022/04/02 17:58:45;;;;;;;11.82;4.85;;;18.30;58.70;;;;;;2279354;62;30195;-83
2022/04/02 18:01:22;;;;;;;12.90;5.70;;;18.20;59.00;;;;;;2285566;62;30244;-82
2022/04/02 18:03:49;;;;;;;10.35;5.80;;;18.10;59.10;;;;;;2286091;62;30149;-88
2022/04/02 18:06:28;;;;;;;11.50;6.00;;;18.00;59.20;;;;;;2284795;62;30364;-86
2022/04/02 18:08:56;;;;;;;15.07;6.90;;;17.90;60.00;;;;;;2279012;62;30510;-86
2022/04/02 18:11:22;;;;;;;16.88;6.82;;;17.90;59.80;;;;;;2285950;62;30158;-90
2022/04/02 18:13:52;;;;;;;12.15;6.70;;;17.70;60.10;;;;;;2292712;62;30616;-86
2022/04/02 18:16:18;;;;;;;13.45;7.57;;;17.70;60.60;;;;;;2285427;62;32263;-84
2022/04/02 18:18:47;;;;;;;11.85;7.38;;;17.60;60.70;;;;;;2278736;62;30599;-82
2022/04/02 18:21:13;;;;;;;20.52;8.80;;;17.50;61.00;;;;;;2286349;62;30292;-83
2022/04/02 18:23:39;;;;;;;13.70;8.13;;;17.50;60.20;;;;;;2284473;62;30071;-81
2022/04/02 18:26:05;;;;;;;22.40;7.90;;;17.50;59.90;;;;;;2277210;62;31266;-87
2022/04/02 18:28:32;;;;;;;12.95;7.88;;;17.40;60.40;;;;;;2283745;62;30085;-86
2022/04/02 18:30:58;;;;;;;19.40;9.68;;;17.40;60.60;;;;;;2284482;62;30287;-80
2022/04/02 18:33:26;;;;;;;16.42;9.10;;;17.40;61.10;;;;;;2286186;62;30089;-88
2022/04/02 18:35:52;;;;;;;14.65;11.05;;;17.30;61.20;;;;;;2285516;62;30975;-89
2022/04/02 18:38:19;;;;;;;15.00;9.23;;;17.30;61.40;;;;;;2276518;62;30556;-89
2022/04/02 18:40:45;;;;;;;12.60;9.27;;;17.30;61.50;;;;;;2290377;62;30034;-89
2022/04/02 18:43:12;;;;;;;15.57;10.00;;;17.20;62.00;;;;;;2277084;62;30043;-83
2022/04/02 18:45:38;;;;;;;15.73;10.05;;;17.20;61.90;;;;;;2283569;62;30902;-87
2022/04/02 18:48:05;;;;;;;15.07;10.82;;;17.20;62.10;;;;;;2286633;62;30250;-88
2022/04/02 18:50:31;;;;;;;21.98;11.80;;;17.20;62.10;;;;;;2286431;62;29963;-86
2022/04/02 18:52:57;;;;;;;18.27;10.60;;;17.20;62.40;;;;;;2276901;62;30157;-83
2022/04/02 18:55:25;;;;;;;17.23;10.02;;;17.10;62.40;;;;;;2284033;62;31057;-80
2022/04/02 18:57:51;;;;;;;14.18;9.90;;;17.10;62.40;;;;;;2276838;62;30620;-82
2022/04/02 19:00:19;;;;;;;12.68;9.20;;;17.20;62.90;;;;;;2277376;62;30137;-80
2022/04/02 19:02:45;;;;;;;11.75;8.07;;;17.20;63.20;;;;;;2271375;62;30406;-82
2022/04/02 19:05:11;;;;;;;9.93;7.57;;;17.20;63.10;;;;;;2285721;62;30744;-80
2022/04/02 19:07:37;;;;;;;11.80;7.57;;;17.20;63.10;;;;;;2277920;62;31785;-82
2022/04/02 19:10:03;;;;;;;9.90;7.25;;;17.30;63.20;;;;;;2285458;62;30189;-82
2022/04/02 19:12:29;;;;;;;10.18;6.20;;;17.20;62.80;;;;;;2278364;62;30361;-78
2022/04/02 19:14:57;;;;;;;9.45;7.57;;;17.20;62.70;;;;;;2285762;62;30212;-88
2022/04/02 19:17:26;;;;;;;11.40;6.28;;;17.20;62.90;;;;;;2278425;62;30091;-89
2022/04/02 19:19:53;;;;;;;7.10;5.93;;;17.20;62.90;;;;;;2278602;62;30351;-90
2022/04/02 19:22:19;;;;;;;8.77;5.78;;;17.20;63.30;;;;;;2271548;62;30202;-80
2022/04/02 19:24:45;;;;;;;9.38;5.68;;;17.20;63.40;;;;;;2277806;62;30409;-83
2022/04/02 19:27:11;;;;;;;7.57;5.13;;;17.20;63.60;;;;;;2278104;62;30789;-82
2022/04/02 19:29:37;;;;;;;10.98;4.80;;;17.20;63.40;;;;;;2292681;62;30142;-77
2022/04/02 19:32:06;;;;;;;5.93;4.47;;;17.20;63.70;;;;;;2293570;62;30489;-77
2022/04/02 19:34:32;;;;;;;4.40;4.00;;;17.20;64.00;;;;;;2286373;62;30860;-78
2022/04/02 19:36:58;;;;;;;4.18;3.78;;;17.20;64.20;;;;;;2286080;62;30573;-77
2022/04/02 19:39:26;;;;;;;5.20;3.75;;;17.20;63.50;;;;;;2286340;62;29950;-78
2022/04/02 19:41:54;;;;;;;4.55;3.40;;;17.20;63.40;;;;;;2286457;62;30189;-78
2022/04/02 19:44:22;;;;;;;4.40;4.00;;;17.10;63.30;;;;;;2279475;62;30889;-78
2022/04/02 19:46:48;;;;;;;4.43;3.22;;;17.10;64.20;;;;;;2293901;62;30128;-78
2022/04/02 19:49:14;;;;;;;4.28;3.72;;;17.10;64.60;;;;;;2279723;62;30324;-77
2022/04/02 19:51:41;;;;;;;5.82;3.75;;;17.10;64.50;;;;;;2293560;62;30259;-77
2022/04/02 19:54:08;;;;;;;4.22;3.00;;;17.10;64.80;;;;;;2279601;62;30139;-78
2022/04/02 19:56:36;;;;;;;3.72;2.80;;;17.10;64.80;;;;;;2286383;62;31003;-77
2022/04/02 19:59:05;;;;;;;3.40;3.05;;;17.10;64.50;;;;;;2293502;62;30229;-77
2022/04/02 20:01:36;;;;;;;3.13;2.70;;;17.10;65.00;;;;;;2293455;62;30083;-77
2022/04/02 20:04:03;;;;;;;4.87;2.40;;;17.10;64.80;;;;;;2279968;62;31197;-77
2022/04/02 20:06:32;;;;;;;3.42;2.67;;;17.00;64.90;;;;;;2286022;62;30784;-77
2022/04/02 20:08:58;;;;;;;5.22;2.45;;;17.00;63.70;;;;;;2293530;62;29931;-77
2022/04/02 20:11:24;;;;;;;3.03;2.50;;;17.00;63.50;;;;;;2286017;62;30037;-77
2022/04/02 20:13:52;;;;;;;2.63;2.17;;;16.90;63.40;;;;;;2283643;62;30215;-79
2022/04/02 20:16:18;;;;;;;2.58;2.38;;;16.90;63.60;;;;;;2284824;62;30545;-79
2022/04/02 20:18:50;;;;;;;4.25;2.35;;;16.90;64.40;;;;;;2278709;62;30215;-79
2022/04/02 20:21:18;;;;;;;4.13;2.17;;;16.90;64.40;;;;;;2283082;62;30054;-79
2022/04/02 20:23:46;;;;;;;3.95;2.20;;;16.90;64.50;;;;;;2277455;62;30878;-79
2022/04/02 20:26:12;;;;;;;2.13;1.83;;;16.90;64.70;;;;;;2280229;62;30732;-79
2022/04/02 20:28:37;;;;;;;2.35;1.80;;;16.90;64.90;;;;;;2285237;62;30152;-79
2022/04/02 20:31:03;;;;;;;2.72;1.80;;;16.90;64.90;;;;;;2285252;62;30263;-79
2022/04/02 20:33:32;;;;;;;2.45;1.90;;;16.90;65.00;;;;;;2285017;62;31108;-79
2022/04/02 20:36:01;;;;;;;4.03;1.80;;;16.90;64.70;;;;;;2285183;62;30597;-79
2022/04/02 20:38:27;;;;;;;2.05;1.70;;;16.90;64.70;;;;;;2269609;62;30286;-80
2022/04/02 20:40:53;;;;;;;1.90;1.80;;;16.90;65.20;;;;;;2276761;62;30435;-80
2022/04/02 20:43:19;;;;;;;2.15;1.48;;;16.90;65.00;;;;;;2276896;62;32190;-80
2022/04/02 20:45:46;;;;;;;1.63;1.52;;;16.90;65.00;;;;;;2276475;62;30618;-82
2022/04/02 20:48:12;;;;;;;8.88;1.88;;;16.90;65.10;;;;;;2276707;62;30004;-76
2022/04/02 20:50:41;;;;;;;1.80;1.70;;;16.90;64.80;;;;;;2276949;62;30018;-75
2022/04/02 20:53:10;;;;;;;2.10;1.60;;;16.90;65.20;;;;;;2276824;62;30071;-77
2022/04/02 20:55:39;;;;;;;3.67;1.58;;;16.90;64.50;;;;;;2276120;62;30911;-77
2022/04/02 20:58:07;;;;;;;1.33;1.30;;;16.90;64.00;;;;;;2276552;62;30103;-76
2022/04/02 21:00:36;;;;;;;1.83;1.48;;;16.80;63.80;;;;;;2276352;62;29966;-78
2022/04/02 21:03:02;;;;;;;1.98;1.17;;;16.80;64.50;;;;;;2273445;62;30226;-76
2022/04/02 21:05:29;;;;;;;2.40;1.48;;;16.80;64.20;;;;;;2275454;62;30105;-76
2022/04/02 21:07:55;;;;;;;1.67;1.35;;;16.80;64.90;;;;;;2268275;62;30133;-76
2022/04/02 21:10:22;;;;;;;1.50;0.95;;;16.80;64.60;;;;;;2273536;62;30774;-78
2022/04/02 21:12:49;;;;;;;1.55;1.08;;;16.80;64.50;;;;;;2268352;62;30003;-77
2022/04/02 21:15:15;;;;;;;1.38;1.10;;;16.80;65.10;;;;;;2266708;62;30580;-79
2022/04/02 21:17:41;;;;;;;2.08;1.38;;;16.90;65.00;;;;;;2274543;62;30195;-76
2022/04/02 21:20:08;;;;;;;1.95;1.05;;;16.90;65.20;;;;;;2275723;62;30320;-77
2022/04/02 21:22:34;;;;;;;1.20;1.20;;;16.90;64.70;;;;;;2274493;62;30337;-80
2022/04/02 21:25:00;;;;;;;1.45;1.20;;;16.90;64.80;;;;;;2275683;62;30263;-76
2022/04/02 21:27:29;;;;;;;1.17;1.13;;;16.90;64.80;;;;;;2274649;62;30133;-76
2022/04/02 21:29:55;;;;;;;1.40;1.30;;;16.90;65.10;;;;;;2274621;62;30139;-77
2022/04/02 21:32:24;;;;;;;1.00;1.00;;;16.90;65.10;;;;;;2275597;62;30082;-78
2022/04/02 21:34:49;;;;;;;1.73;1.20;;;16.90;65.00;;;;;;2275548;62;30110;-78
2022/04/02 21:37:15;;;;;;;2.30;1.30;;;16.90;64.70;;;;;;2274987;62;30185;-77
2022/04/02 21:39:41;;;;;;;1.40;1.30;;;16.90;64.80;;;;;;2288909;62;30063;-77
2022/04/02 21:42:07;;;;;;;1.40;1.30;;;16.90;64.60;;;;;;2284494;62;32062;-77
2022/04/02 21:44:33;;;;;;;1.10;1.00;;;16.90;64.70;;;;;;2291696;62;29971;-78
2022/04/02 21:46:59;;;;;;;1.20;1.10;;;16.80;64.40;;;;;;2291581;62;30129;-77
2022/04/02 21:49:28;;;;;;;1.13;1.10;;;16.80;64.90;;;;;;2288772;62;30251;-78
2022/04/02 21:51:54;;;;;;;1.27;1.17;;;16.80;64.70;;;;;;2283021;62;30785;-80
2022/04/02 21:54:20;;;;;;;2.20;1.13;;;16.80;65.00;;;;;;2276457;62;30077;-78
2022/04/02 21:56:46;;;;;;;1.20;1.00;;;16.80;64.80;;;;;;2283751;62;30496;-79
2022/04/02 21:59:14;;;;;;;2.28;1.50;;;16.80;64.80;;;;;;2284063;62;30107;-80
2022/04/02 22:02:08;;;;;;;1.13;1.00;;;16.80;64.90;;;;;;2291130;62;31405;-79
2022/04/02 22:04:34;;;;;;;1.85;1.10;;;16.80;65.50;;;;;;2291570;62;30143;-77
2022/04/02 22:07:00;;;;;;;0.88;0.88;;;16.80;64.80;;;;;;2291964;62;30076;-79
2022/04/02 22:09:27;;;;;;;5.55;1.00;;;16.90;64.70;;;;;;2291830;62;30672;-78
2022/04/02 22:11:54;;;;;;;1.67;1.00;;;16.90;65.00;;;;;;2291657;62;30301;-79
2022/04/02 22:14:19;;;;;;;0.90;0.90;;;16.90;65.50;;;;;;2277619;62;31819;-78
2022/04/02 22:16:45;;;;;;;1.30;1.10;;;16.90;65.00;;;;;;2284421;62;30227;-76
2022/04/02 22:19:11;;;;;;;1.17;1.02;;;16.90;65.30;;;;;;2290714;62;30186;-76
2022/04/02 22:21:37;;;;;;;1.23;0.90;;;16.90;65.40;;;;;;2284007;62;30477;-76
2022/04/02 22:24:06;;;;;;;1.13;0.90;;;16.90;65.20;;;;;;2284066;62;30176;-74
2022/04/02 22:26:36;;;;;;;1.17;1.00;;;16.90;65.50;;;;;;2291354;62;29995;-77
2022/04/02 22:29:03;;;;;;;0.60;0.60;;;16.90;65.40;;;;;;2291814;62;30161;-77
2022/04/02 22:31:32;;;;;;;0.80;0.80;;;16.90;65.60;;;;;;2291417;62;32390;-75
2022/04/02 22:33:58;;;;;;;0.80;0.80;;;16.90;65.50;;;;;;2291055;62;30425;-75
2022/04/02 22:36:26;;;;;;;0.85;0.85;;;16.90;65.30;;;;;;2284053;62;30577;-72
2022/04/02 22:38:52;;;;;;;1.42;0.80;;;16.90;65.40;;;;;;2291448;62;29924;-72
2022/04/02 22:41:18;;;;;;;1.58;0.93;;;16.90;65.50;;;;;;2291302;62;32017;-73
2022/04/02 22:43:44;;;;;;;1.58;0.90;;;16.90;65.40;;;;;;2282474;62;30134;-73
2022/04/02 22:46:10;;;;;;;1.83;1.00;;;16.90;65.50;;;;;;2275459;62;29943;-73
2022/04/02 22:48:38;;;;;;;2.40;0.93;;;16.80;64.80;;;;;;2283254;62;29956;-73
2022/04/02 22:51:07;;;;;;;1.58;0.95;;;16.80;64.30;;;;;;2276091;62;30865;-73
